sensor_id;sensor_type;location;lat;lon;timestamp;pressure;altitude;pressure_sealevel;temperature;humidity
28935;BME280;16044;52.726;-2.108;2022-08-19T00:02:02;100117.78;;;18.60;80.11
28935;BME280;16044;52.726;-2.108;2022-08-19T00:04:33;100114.38;;;18.53;80.30
28935;BME280;16044;52.726;-2.108;2022-08-19T00:07:06;100113.75;;;18.50;80.35
28935;BME280;16044;52.726;-2.108;2022-08-19T00:09:34;100119.13;;;18.45;80.40
28935;BME280;16044;52.726;-2.108;2022-08-19T00:12:02;100120.69;;;18.41;80.63
28935;BME280;16044;52.726;-2.108;2022-08-19T00:14:30;100123.44;;;18.41;81.24
28935;BME280;16044;52.726;-2.108;2022-08-19T00:16:58;100124.94;;;18.37;81.58
28935;BME280;16044;52.726;-2.108;2022-08-19T00:19:26;100129.38;;;18.38;81.69
28935;BME280;16044;52.726;-2.108;2022-08-19T00:21:53;100127.81;;;18.42;81.78
28935;BME280;16044;52.726;-2.108;2022-08-19T00:24:23;100137.47;;;18.45;81.84
28935;BME280;16044;52.726;-2.108;2022-08-19T00:26:51;100141.69;;;18.47;81.72
28935;BME280;16044;52.726;-2.108;2022-08-19T00:29:20;100140.25;;;18.57;81.47
28935;BME280;16044;52.726;-2.108;2022-08-19T00:31:47;100132.03;;;18.57;81.45
28935;BME280;16044;52.726;-2.108;2022-08-19T00:34:16;100147.75;;;18.61;81.29
28935;BME280;16044;52.726;-2.108;2022-08-19T00:36:43;100143.59;;;18.59;81.32
28935;BME280;16044;52.726;-2.108;2022-08-19T00:39:11;100150.72;;;18.60;81.20
28935;BME280;16044;52.726;-2.108;2022-08-19T00:41:40;100150.72;;;18.60;81.25
28935;BME280;16044;52.726;-2.108;2022-08-19T00:44:15;100147.41;;;18.58;81.22
28935;BME280;16044;52.726;-2.108;2022-08-19T00:46:44;100142.03;;;18.63;81.06
28935;BME280;16044;52.726;-2.108;2022-08-19T00:49:36;100137.28;;;18.58;80.97
28935;BME280;16044;52.726;-2.108;2022-08-19T00:52:08;100136.69;;;18.68;81.00
28935;BME280;16044;52.726;-2.108;2022-08-19T00:54:39;100137.97;;;18.65;80.98
28935;BME280;16044;52.726;-2.108;2022-08-19T00:57:10;100136.53;;;18.63;80.86
28935;BME280;16044;52.726;-2.108;2022-08-19T00:59:40;100134.63;;;18.63;81.00
28935;BME280;16044;52.726;-2.108;2022-08-19T01:02:28;100139.28;;;18.63;81.01
28935;BME280;16044;52.726;-2.108;2022-08-19T01:04:56;100131.06;;;18.63;81.07
28935;BME280;16044;52.726;-2.108;2022-08-19T01:07:24;100133.56;;;18.64;81.14
28935;BME280;16044;52.726;-2.108;2022-08-19T01:09:51;100124.59;;;18.69;81.15
28935;BME280;16044;52.726;-2.108;2022-08-19T01:12:18;100133.81;;;18.63;81.36
28935;BME280;16044;52.726;-2.108;2022-08-19T01:14:46;100135.22;;;18.65;81.22
28935;BME280;16044;52.726;-2.108;2022-08-19T01:17:14;100140.97;;;18.64;81.24
28935;BME280;16044;52.726;-2.108;2022-08-19T01:19:45;100142.63;;;18.65;81.29
28935;BME280;16044;52.726;-2.108;2022-08-19T01:22:31;100140.25;;;18.57;81.40
28935;BME280;16044;52.726;-2.108;2022-08-19T01:25:07;100142.16;;;18.68;81.16
28935;BME280;16044;52.726;-2.108;2022-08-19T01:27:42;100140.47;;;18.67;81.09
28935;BME280;16044;52.726;-2.108;2022-08-19T01:30:20;100137.72;;;18.67;81.18
28935;BME280;16044;52.726;-2.108;2022-08-19T01:32:50;100143.22;;;18.67;81.15
28935;BME280;16044;52.726;-2.108;2022-08-19T01:35:18;100144.31;;;18.66;81.07
28935;BME280;16044;52.726;-2.108;2022-08-19T01:37:52;100146.09;;;18.60;80.96
28935;BME280;16044;52.726;-2.108;2022-08-19T01:40:24;100160.06;;;18.59;80.87
28935;BME280;16044;52.726;-2.108;2022-08-19T01:42:53;100156.94;;;18.55;80.82
28935;BME280;16044;52.726;-2.108;2022-08-19T01:45:23;100163.13;;;18.50;80.92
28935;BME280;16044;52.726;-2.108;2022-08-19T01:47:52;100163.50;;;18.42;81.03
28935;BME280;16044;52.726;-2.108;2022-08-19T01:50:29;100157.78;;;18.44;80.82
28935;BME280;16044;52.726;-2.108;2022-08-19T01:52:58;100164.59;;;18.41;80.75
28935;BME280;16044;52.726;-2.108;2022-08-19T01:55:33;100157.75;;;18.32;80.82
28935;BME280;16044;52.726;-2.108;2022-08-19T01:58:11;100164.31;;;18.31;80.68
28935;BME280;16044;52.726;-2.108;2022-08-19T02:00:41;100175.41;;;18.24;80.68
28935;BME280;16044;52.726;-2.108;2022-08-19T02:03:09;100172.75;;;18.18;80.93
28935;BME280;16044;52.726;-2.108;2022-08-19T02:05:39;100172.16;;;18.16;81.07
28935;BME280;16044;52.726;-2.108;2022-08-19T02:08:07;100177.63;;;18.16;81.00
28935;BME280;16044;52.726;-2.108;2022-08-19T02:10:39;100184.66;;;18.11;80.98
28935;BME280;16044;52.726;-2.108;2022-08-19T02:13:08;100193.13;;;18.10;81.10
28935;BME280;16044;52.726;-2.108;2022-08-19T02:15:36;100194.91;;;18.04;77.28
28935;BME280;16044;52.726;-2.108;2022-08-19T02:18:03;100201.69;;;18.02;73.45
28935;BME280;16044;52.726;-2.108;2022-08-19T02:20:31;100201.88;;;17.88;69.16
28935;BME280;16044;52.726;-2.108;2022-08-19T02:22:58;100205.81;;;17.74;64.95
28935;BME280;16044;52.726;-2.108;2022-08-19T02:25:27;100215.81;;;17.68;64.18
28935;BME280;16044;52.726;-2.108;2022-08-19T02:27:54;100214.59;;;17.64;64.32
28935;BME280;16044;52.726;-2.108;2022-08-19T02:30:22;100222.44;;;17.61;63.66
28935;BME280;16044;52.726;-2.108;2022-08-19T02:32:49;100225.88;;;17.56;63.36
28935;BME280;16044;52.726;-2.108;2022-08-19T02:35:16;100225.03;;;17.56;64.09
28935;BME280;16044;52.726;-2.108;2022-08-19T02:37:43;100222.75;;;17.52;64.57
28935;BME280;16044;52.726;-2.108;2022-08-19T02:40:29;100221.00;;;17.40;65.07
28935;BME280;16044;52.726;-2.108;2022-08-19T02:43:05;100216.91;;;17.49;65.32
28935;BME280;16044;52.726;-2.108;2022-08-19T02:45:37;100215.22;;;17.48;64.88
28935;BME280;16044;52.726;-2.108;2022-08-19T02:48:06;100223.28;;;17.43;64.81
28935;BME280;16044;52.726;-2.108;2022-08-19T02:50:48;100216.59;;;17.39;65.64
28935;BME280;16044;52.726;-2.108;2022-08-19T02:53:23;100217.94;;;17.29;65.67
28935;BME280;16044;52.726;-2.108;2022-08-19T02:55:51;100228.78;;;17.24;66.03
28935;BME280;16044;52.726;-2.108;2022-08-19T02:58:19;100220.38;;;17.19;65.86
28935;BME280;16044;52.726;-2.108;2022-08-19T03:00:51;100223.66;;;17.09;65.92
28935;BME280;16044;52.726;-2.108;2022-08-19T03:03:21;100218.09;;;16.98;65.13
28935;BME280;16044;52.726;-2.108;2022-08-19T03:05:48;100228.03;;;16.92;64.94
28935;BME280;16044;52.726;-2.108;2022-08-19T03:08:23;100223.06;;;16.82;64.73
28935;BME280;16044;52.726;-2.108;2022-08-19T03:10:52;100236.09;;;16.80;65.07
28935;BME280;16044;52.726;-2.108;2022-08-19T03:13:19;100232.75;;;16.78;65.37
28935;BME280;16044;52.726;-2.108;2022-08-19T03:15:47;100231.09;;;16.77;65.53
28935;BME280;16044;52.726;-2.108;2022-08-19T03:18:15;100240.97;;;16.78;65.52
28935;BME280;16044;52.726;-2.108;2022-08-19T03:20:50;100234.66;;;16.77;65.59
28935;BME280;16044;52.726;-2.108;2022-08-19T03:23:21;100231.91;;;16.77;65.47
28935;BME280;16044;52.726;-2.108;2022-08-19T03:25:50;100234.25;;;16.74;65.33
28935;BME280;16044;52.726;-2.108;2022-08-19T03:28:39;100234.69;;;16.71;65.80
28935;BME280;16044;52.726;-2.108;2022-08-19T03:31:09;100240.03;;;16.66;65.77
28935;BME280;16044;52.726;-2.108;2022-08-19T03:34:01;100236.50;;;16.59;66.20
28935;BME280;16044;52.726;-2.108;2022-08-19T03:36:29;100242.25;;;16.50;66.24
28935;BME280;16044;52.726;-2.108;2022-08-19T03:38:58;100250.72;;;16.42;66.30
28935;BME280;16044;52.726;-2.108;2022-08-19T03:41:32;100250.38;;;16.32;66.24
28935;BME280;16044;52.726;-2.108;2022-08-19T03:44:17;100255.72;;;16.20;66.44
28935;BME280;16044;52.726;-2.108;2022-08-19T03:46:50;100256.16;;;16.10;66.74
28935;BME280;16044;52.726;-2.108;2022-08-19T03:49:20;100250.53;;;15.98;66.84
28935;BME280;16044;52.726;-2.108;2022-08-19T03:51:55;100265.72;;;15.88;67.19
28935;BME280;16044;52.726;-2.108;2022-08-19T03:54:24;100264.53;;;15.77;67.73
28935;BME280;16044;52.726;-2.108;2022-08-19T03:56:53;100265.59;;;15.69;67.95
28935;BME280;16044;52.726;-2.108;2022-08-19T03:59:27;100271.72;;;15.58;68.07
28935;BME280;16044;52.726;-2.108;2022-08-19T04:01:58;100266.25;;;15.51;68.52
28935;BME280;16044;52.726;-2.108;2022-08-19T04:04:27;100272.78;;;15.44;69.10
28935;BME280;16044;52.726;-2.108;2022-08-19T04:06:57;100274.28;;;15.39;69.14
28935;BME280;16044;52.726;-2.108;2022-08-19T04:09:25;100267.16;;;15.32;69.21
28935;BME280;16044;52.726;-2.108;2022-08-19T04:11:54;100270.50;;;15.27;69.16
28935;BME280;16044;52.726;-2.108;2022-08-19T04:14:24;100275.59;;;15.17;69.58
28935;BME280;16044;52.726;-2.108;2022-08-19T04:16:58;100276.84;;;15.08;69.67
28935;BME280;16044;52.726;-2.108;2022-08-19T04:19:28;100279.59;;;15.01;69.95
28935;BME280;16044;52.726;-2.108;2022-08-19T04:21:56;100285.25;;;14.93;70.33
28935;BME280;16044;52.726;-2.108;2022-08-19T04:24:23;100288.22;;;14.85;70.67
28935;BME280;16044;52.726;-2.108;2022-08-19T04:26:51;100289.88;;;14.79;70.90
28935;BME280;16044;52.726;-2.108;2022-08-19T04:29:21;100303.31;;;14.74;71.30
28935;BME280;16044;52.726;-2.108;2022-08-19T04:31:53;100307.91;;;14.67;71.50
28935;BME280;16044;52.726;-2.108;2022-08-19T04:34:23;100303.91;;;14.62;71.66
28935;BME280;16044;52.726;-2.108;2022-08-19T04:36:55;100307.44;;;14.56;72.01
28935;BME280;16044;52.726;-2.108;2022-08-19T04:39:27;100303.88;;;14.49;72.12
28935;BME280;16044;52.726;-2.108;2022-08-19T04:42:17;100308.25;;;14.43;72.32
28935;BME280;16044;52.726;-2.108;2022-08-19T04:45:05;100300.72;;;14.39;72.36
28935;BME280;16044;52.726;-2.108;2022-08-19T04:47:38;100302.56;;;14.32;72.80
28935;BME280;16044;52.726;-2.108;2022-08-19T04:50:17;100304.03;;;14.28;72.74
28935;BME280;16044;52.726;-2.108;2022-08-19T04:52:45;100316.19;;;14.25;72.75
28935;BME280;16044;52.726;-2.108;2022-08-19T04:55:12;100327.72;;;14.20;73.21
28935;BME280;16044;52.726;-2.108;2022-08-19T04:57:40;100324.56;;;14.17;73.13
28935;BME280;16044;52.726;-2.108;2022-08-19T05:00:08;100323.28;;;14.13;73.15
28935;BME280;16044;52.726;-2.108;2022-08-19T05:02:37;100323.47;;;14.11;73.25
28935;BME280;16044;52.726;-2.108;2022-08-19T05:05:04;100327.84;;;14.06;73.46
28935;BME280;16044;52.726;-2.108;2022-08-19T05:07:33;100329.13;;;14.03;73.49
28935;BME280;16044;52.726;-2.108;2022-08-19T05:10:01;100336.03;;;13.99;73.59
28935;BME280;16044;52.726;-2.108;2022-08-19T05:12:29;100335.34;;;13.97;73.94
28935;BME280;16044;52.726;-2.108;2022-08-19T05:14:57;100336.19;;;13.91;74.21
28935;BME280;16044;52.726;-2.108;2022-08-19T05:17:26;100335.34;;;13.90;74.24
28935;BME280;16044;52.726;-2.108;2022-08-19T05:20:00;100345.41;;;13.90;74.39
28935;BME280;16044;52.726;-2.108;2022-08-19T05:22:47;100351.88;;;13.89;74.40
28935;BME280;16044;52.726;-2.108;2022-08-19T05:25:17;100356.31;;;13.90;74.60
28935;BME280;16044;52.726;-2.108;2022-08-19T05:27:46;100356.31;;;13.90;74.78
28935;BME280;16044;52.726;-2.108;2022-08-19T05:30:15;100360.50;;;13.92;74.65
28935;BME280;16044;52.726;-2.108;2022-08-19T05:32:43;100356.94;;;13.92;74.87
28935;BME280;16044;52.726;-2.108;2022-08-19T05:35:11;100359.25;;;13.95;75.17
28935;BME280;16044;52.726;-2.108;2022-08-19T05:37:38;100369.13;;;13.96;75.17
28935;BME280;16044;52.726;-2.108;2022-08-19T05:40:08;100374.38;;;13.97;75.17
28935;BME280;16044;52.726;-2.108;2022-08-19T05:42:36;100376.47;;;14.02;74.79
28935;BME280;16044;52.726;-2.108;2022-08-19T05:45:03;100373.59;;;14.10;74.75
28935;BME280;16044;52.726;-2.108;2022-08-19T05:47:31;100376.00;;;14.33;74.85
28935;BME280;16044;52.726;-2.108;2022-08-19T05:49:58;100378.88;;;14.73;74.32
28935;BME280;16044;52.726;-2.108;2022-08-19T05:52:26;100378.91;;;14.93;73.72
28935;BME280;16044;52.726;-2.108;2022-08-19T05:54:55;100378.47;;;15.10;73.59
28935;BME280;16044;52.726;-2.108;2022-08-19T05:57:23;100379.31;;;15.30;72.86
28935;BME280;16044;52.726;-2.108;2022-08-19T05:59:51;100379.31;;;15.50;72.45
28935;BME280;16044;52.726;-2.108;2022-08-19T06:02:25;100382.63;;;15.72;72.05
28935;BME280;16044;52.726;-2.108;2022-08-19T06:04:53;100384.34;;;15.87;71.43
28935;BME280;16044;52.726;-2.108;2022-08-19T06:07:20;100379.69;;;15.94;71.28
28935;BME280;16044;52.726;-2.108;2022-08-19T06:09:47;100370.41;;;15.95;71.00
28935;BME280;16044;52.726;-2.108;2022-08-19T06:12:30;100380.53;;;15.94;70.91
28935;BME280;16044;52.726;-2.108;2022-08-19T06:15:07;100386.63;;;15.96;70.73
28935;BME280;16044;52.726;-2.108;2022-08-19T06:17:36;100396.06;;;16.07;70.45
28935;BME280;16044;52.726;-2.108;2022-08-19T06:20:05;100396.06;;;16.01;70.68
28935;BME280;16044;52.726;-2.108;2022-08-19T06:22:38;100406.78;;;16.02;70.64
28935;BME280;16044;52.726;-2.108;2022-08-19T06:25:06;100413.31;;;16.01;70.70
28935;BME280;16044;52.726;-2.108;2022-08-19T06:27:35;100413.31;;;16.01;71.17
28935;BME280;16044;52.726;-2.108;2022-08-19T06:30:13;100404.06;;;16.02;71.50
28935;BME280;16044;52.726;-2.108;2022-08-19T06:32:41;100409.94;;;16.12;71.35
28935;BME280;16044;52.726;-2.108;2022-08-19T06:35:08;100409.88;;;16.26;71.29
28935;BME280;16044;52.726;-2.108;2022-08-19T06:37:37;100412.66;;;16.57;71.08
28935;BME280;16044;52.726;-2.108;2022-08-19T06:40:10;100409.09;;;16.95;70.66
28935;BME280;16044;52.726;-2.108;2022-08-19T06:42:39;100402.88;;;17.39;69.36
28935;BME280;16044;52.726;-2.108;2022-08-19T06:45:20;100405.56;;;17.70;68.85
28935;BME280;16044;52.726;-2.108;2022-08-19T06:47:51;100414.66;;;17.89;68.14
28935;BME280;16044;52.726;-2.108;2022-08-19T06:50:21;100407.91;;;17.92;67.53
28935;BME280;16044;52.726;-2.108;2022-08-19T06:52:51;100407.44;;;17.95;67.00
28935;BME280;16044;52.726;-2.108;2022-08-19T06:55:19;100408.66;;;17.99;66.47
28935;BME280;16044;52.726;-2.108;2022-08-19T06:57:46;100419.63;;;17.99;66.13
28935;BME280;16044;52.726;-2.108;2022-08-19T07:00:15;100410.19;;;18.14;65.96
28935;BME280;16044;52.726;-2.108;2022-08-19T07:02:43;100401.44;;;18.23;65.82
28935;BME280;16044;52.726;-2.108;2022-08-19T07:05:21;100407.66;;;18.49;64.24
28935;BME280;16044;52.726;-2.108;2022-08-19T07:07:48;100416.50;;;18.51;63.32
28935;BME280;16044;52.726;-2.108;2022-08-19T07:10:16;100405.03;;;18.54;62.89
28935;BME280;16044;52.726;-2.108;2022-08-19T07:12:43;100402.69;;;18.58;62.64
28935;BME280;16044;52.726;-2.108;2022-08-19T07:15:11;100404.03;;;18.67;62.67
28935;BME280;16044;52.726;-2.108;2022-08-19T07:17:38;100414.44;;;18.77;61.93
28935;BME280;16044;52.726;-2.108;2022-08-19T07:20:08;100415.75;;;18.74;61.00
28935;BME280;16044;52.726;-2.108;2022-08-19T07:22:40;100412.63;;;18.89;61.04
28935;BME280;16044;52.726;-2.108;2022-08-19T07:25:08;100414.34;;;19.02;60.47
28935;BME280;16044;52.726;-2.108;2022-08-19T07:27:36;100411.25;;;19.10;60.00
28935;BME280;16044;52.726;-2.108;2022-08-19T07:30:06;100408.28;;;19.23;58.95
28935;BME280;16044;52.726;-2.108;2022-08-19T07:32:38;100415.81;;;19.28;59.52
28935;BME280;16044;52.726;-2.108;2022-08-19T07:35:06;100422.41;;;19.39;58.49
28935;BME280;16044;52.726;-2.108;2022-08-19T07:37:35;100429.84;;;19.50;57.66
28935;BME280;16044;52.726;-2.108;2022-08-19T07:40:06;100435.47;;;19.55;57.31
28935;BME280;16044;52.726;-2.108;2022-08-19T07:42:34;100434.97;;;19.58;55.99
28935;BME280;16044;52.726;-2.108;2022-08-19T07:45:01;100445.66;;;19.66;56.36
28935;BME280;16044;52.726;-2.108;2022-08-19T07:47:28;100447.72;;;19.83;55.01
28935;BME280;16044;52.726;-2.108;2022-08-19T07:50:15;100441.97;;;19.96;55.65
28935;BME280;16044;52.726;-2.108;2022-08-19T07:52:42;100444.00;;;20.01;55.24
28935;BME280;16044;52.726;-2.108;2022-08-19T07:55:15;100446.13;;;20.11;53.84
28935;BME280;16044;52.726;-2.108;2022-08-19T07:58:03;100448.78;;;20.05;53.12
28935;BME280;16044;52.726;-2.108;2022-08-19T08:00:31;100437.28;;;20.20;52.23
28935;BME280;16044;52.726;-2.108;2022-08-19T08:02:59;100440.50;;;20.29;51.63
28935;BME280;16044;52.726;-2.108;2022-08-19T08:05:26;100442.38;;;20.40;51.32
28935;BME280;16044;52.726;-2.108;2022-08-19T08:08:14;100452.28;;;20.65;50.94
28935;BME280;16044;52.726;-2.108;2022-08-19T08:11:00;100440.41;;;20.76;48.98
28935;BME280;16044;52.726;-2.108;2022-08-19T08:13:27;100452.69;;;20.86;48.43
28935;BME280;16044;52.726;-2.108;2022-08-19T08:15:55;100452.69;;;20.86;47.06
28935;BME280;16044;52.726;-2.108;2022-08-19T08:18:24;100446.41;;;21.02;46.71
28935;BME280;16044;52.726;-2.108;2022-08-19T08:20:54;100447.22;;;21.02;46.94
28935;BME280;16044;52.726;-2.108;2022-08-19T08:23:22;100441.38;;;20.99;47.44
28935;BME280;16044;52.726;-2.108;2022-08-19T08:25:55;100447.38;;;20.96;47.76
28935;BME280;16044;52.726;-2.108;2022-08-19T08:28:25;100450.41;;;21.11;47.87
28935;BME280;16044;52.726;-2.108;2022-08-19T08:30:56;100446.41;;;21.19;46.26
28935;BME280;16044;52.726;-2.108;2022-08-19T08:33:26;100445.88;;;21.05;46.50
28935;BME280;16044;52.726;-2.108;2022-08-19T08:36:07;100451.78;;;21.42;47.10
28935;BME280;16044;52.726;-2.108;2022-08-19T08:38:35;100441.72;;;21.48;46.31
28935;BME280;16044;52.726;-2.108;2022-08-19T08:41:38;100446.47;;;21.53;44.72
28935;BME280;16044;52.726;-2.108;2022-08-19T08:44:17;100458.13;;;21.43;44.60
28935;BME280;16044;52.726;-2.108;2022-08-19T08:46:53;100469.56;;;21.18;45.14
28935;BME280;16044;52.726;-2.108;2022-08-19T08:49:46;100466.28;;;21.04;45.14
28935;BME280;16044;52.726;-2.108;2022-08-19T08:52:28;100465.59;;;20.97;46.59
28935;BME280;16044;52.726;-2.108;2022-08-19T08:55:13;100469.59;;;20.77;46.01
28935;BME280;16044;52.726;-2.108;2022-08-19T09:00:22;100469.34;;;20.79;46.46
28935;BME280;16044;52.726;-2.108;2022-08-19T09:02:59;100458.22;;;20.86;45.74
28935;BME280;16044;52.726;-2.108;2022-08-19T09:11:44;100469.16;;;21.43;45.54
28935;BME280;16044;52.726;-2.108;2022-08-19T09:17:24;100478.06;;;21.79;43.83
28935;BME280;16044;52.726;-2.108;2022-08-19T09:22:47;100478.75;;;21.86;44.08
28935;BME280;16044;52.726;-2.108;2022-08-19T09:25:18;100473.06;;;21.93;44.22
28935;BME280;16044;52.726;-2.108;2022-08-19T09:27:53;100477.56;;;21.99;44.26
28935;BME280;16044;52.726;-2.108;2022-08-19T09:30:36;100477.91;;;22.03;44.30
28935;BME280;16044;52.726;-2.108;2022-08-19T09:33:06;100467.69;;;21.86;43.83
28935;BME280;16044;52.726;-2.108;2022-08-19T09:35:33;100478.06;;;21.96;43.66
28935;BME280;16044;52.726;-2.108;2022-08-19T09:38:18;100478.03;;;22.13;44.29
28935;BME280;16044;52.726;-2.108;2022-08-19T09:40:45;100478.59;;;22.15;42.92
28935;BME280;16044;52.726;-2.108;2022-08-19T09:43:11;100475.72;;;22.05;42.20
28935;BME280;16044;52.726;-2.108;2022-08-19T09:45:39;100483.09;;;21.99;42.08
28935;BME280;16044;52.726;-2.108;2022-08-19T09:48:06;100481.91;;;21.95;42.19
28935;BME280;16044;52.726;-2.108;2022-08-19T09:50:35;100475.31;;;21.79;42.76
28935;BME280;16044;52.726;-2.108;2022-08-19T09:53:17;100478.31;;;21.77;43.03
28935;BME280;16044;52.726;-2.108;2022-08-19T09:55:45;100490.06;;;21.39;43.00
28935;BME280;16044;52.726;-2.108;2022-08-19T09:58:14;100489.31;;;21.27;43.38
28935;BME280;16044;52.726;-2.108;2022-08-19T10:00:41;100477.72;;;21.13;44.41
28935;BME280;16044;52.726;-2.108;2022-08-19T10:03:16;100473.34;;;21.29;44.13
28935;BME280;16044;52.726;-2.108;2022-08-19T10:05:43;100469.16;;;21.43;44.94
28935;BME280;16044;52.726;-2.108;2022-08-19T10:08:41;100481.34;;;21.59;43.22
28935;BME280;16044;52.726;-2.108;2022-08-19T10:11:16;100475.31;;;21.62;43.21
28935;BME280;16044;52.726;-2.108;2022-08-19T10:13:54;100469.38;;;21.87;43.36
28935;BME280;16044;52.726;-2.108;2022-08-19T10:16:22;100467.34;;;21.99;42.01
28935;BME280;16044;52.726;-2.108;2022-08-19T10:18:56;100471.03;;;22.05;41.00
28935;BME280;16044;52.726;-2.108;2022-08-19T10:21:28;100467.53;;;22.10;40.72
28935;BME280;16044;52.726;-2.108;2022-08-19T10:24:00;100467.94;;;22.02;40.77
28935;BME280;16044;52.726;-2.108;2022-08-19T10:26:34;100461.22;;;22.14;40.41
28935;BME280;16044;52.726;-2.108;2022-08-19T10:29:04;100452.44;;;22.34;40.74
28935;BME280;16044;52.726;-2.108;2022-08-19T10:31:34;100462.28;;;22.30;39.46
28935;BME280;16044;52.726;-2.108;2022-08-19T10:34:21;100450.75;;;22.33;38.44
28935;BME280;16044;52.726;-2.108;2022-08-19T10:36:54;100451.09;;;22.20;38.81
28935;BME280;16044;52.726;-2.108;2022-08-19T10:39:28;100455.44;;;22.16;40.08
28935;BME280;16044;52.726;-2.108;2022-08-19T10:42:07;100453.25;;;22.18;40.36
28935;BME280;16044;52.726;-2.108;2022-08-19T10:44:37;100448.91;;;22.22;40.31
28935;BME280;16044;52.726;-2.108;2022-08-19T10:47:04;100455.50;;;22.21;40.98
28935;BME280;16044;52.726;-2.108;2022-08-19T10:49:54;100471.78;;;22.00;41.78
28935;BME280;16044;52.726;-2.108;2022-08-19T10:52:43;100468.94;;;22.12;41.51
28935;BME280;16044;52.726;-2.108;2022-08-19T10:55:21;100470.78;;;22.07;42.21
28935;BME280;16044;52.726;-2.108;2022-08-19T10:58:18;100462.16;;;22.03;42.83
28935;BME280;16044;52.726;-2.108;2022-08-19T11:00:57;100461.72;;;22.11;43.01
28935;BME280;16044;52.726;-2.108;2022-08-19T11:03:26;100449.41;;;22.19;43.06
28935;BME280;16044;52.726;-2.108;2022-08-19T11:06:02;100454.78;;;22.26;41.86
28935;BME280;16044;52.726;-2.108;2022-08-19T11:08:32;100457.78;;;22.07;41.92
28935;BME280;16044;52.726;-2.108;2022-08-19T11:11:00;100460.19;;;21.98;42.01
28935;BME280;16044;52.726;-2.108;2022-08-19T11:13:32;100463.91;;;21.92;42.14
28935;BME280;16044;52.726;-2.108;2022-08-19T11:16:14;100465.88;;;21.75;42.14
28935;BME280;16044;52.726;-2.108;2022-08-19T11:18:53;100470.38;;;21.64;42.42
28935;BME280;16044;52.726;-2.108;2022-08-19T11:21:30;100470.63;;;21.46;42.84
28935;BME280;16044;52.726;-2.108;2022-08-19T11:24:02;100473.22;;;21.52;42.46
28935;BME280;16044;52.726;-2.108;2022-08-19T11:26:31;100470.38;;;21.47;42.59
28935;BME280;16044;52.726;-2.108;2022-08-19T11:28:59;100460.00;;;21.54;42.47
28935;BME280;16044;52.726;-2.108;2022-08-19T11:31:34;100474.63;;;21.55;42.52
28935;BME280;16044;52.726;-2.108;2022-08-19T11:34:05;100473.22;;;21.52;41.91
28935;BME280;16044;52.726;-2.108;2022-08-19T11:36:36;100466.78;;;21.47;41.31
28935;BME280;16044;52.726;-2.108;2022-08-19T11:39:11;100466.06;;;21.39;41.89
28935;BME280;16044;52.726;-2.108;2022-08-19T11:41:39;100463.94;;;21.58;42.67
28935;BME280;16044;52.726;-2.108;2022-08-19T11:44:06;100461.50;;;21.79;41.60
28935;BME280;16044;52.726;-2.108;2022-08-19T11:46:35;100458.16;;;21.94;41.08
28935;BME280;16044;52.726;-2.108;2022-08-19T11:49:05;100464.09;;;22.03;40.54
28935;BME280;16044;52.726;-2.108;2022-08-19T11:51:40;100468.81;;;22.24;40.65
28935;BME280;16044;52.726;-2.108;2022-08-19T11:54:10;100468.63;;;22.48;41.28
28935;BME280;16044;52.726;-2.108;2022-08-19T11:56:40;100465.91;;;22.53;41.01
28935;BME280;16044;52.726;-2.108;2022-08-19T11:59:08;100467.06;;;22.57;41.10
28935;BME280;16044;52.726;-2.108;2022-08-19T12:01:40;100464.19;;;22.69;40.92
28935;BME280;16044;52.726;-2.108;2022-08-19T12:04:09;100470.53;;;22.69;39.02
28935;BME280;16044;52.726;-2.108;2022-08-19T12:06:39;100475.59;;;22.77;38.97
28935;BME280;16044;52.726;-2.108;2022-08-19T12:09:08;100472.91;;;22.83;38.35
28935;BME280;16044;52.726;-2.108;2022-08-19T12:11:37;100471.81;;;22.84;39.04
28935;BME280;16044;52.726;-2.108;2022-08-19T12:14:05;100472.25;;;22.75;39.51
28935;BME280;16044;52.726;-2.108;2022-08-19T12:16:32;100472.75;;;22.94;39.61
28935;BME280;16044;52.726;-2.108;2022-08-19T12:19:03;100477.25;;;23.01;37.75
28935;BME280;16044;52.726;-2.108;2022-08-19T12:21:34;100473.72;;;23.05;37.39
28935;BME280;16044;52.726;-2.108;2022-08-19T12:24:03;100478.09;;;23.01;37.94
28935;BME280;16044;52.726;-2.108;2022-08-19T12:26:32;100480.16;;;22.89;37.36
28935;BME280;16044;52.726;-2.108;2022-08-19T12:29:01;100487.69;;;22.93;37.53
28935;BME280;16044;52.726;-2.108;2022-08-19T12:31:29;100486.88;;;22.98;37.80
28935;BME280;16044;52.726;-2.108;2022-08-19T12:33:56;100480.97;;;23.11;38.01
28935;BME280;16044;52.726;-2.108;2022-08-19T12:36:24;100471.34;;;23.14;37.67
28935;BME280;16044;52.726;-2.108;2022-08-19T12:38:52;100473.69;;;23.27;37.85
28935;BME280;16044;52.726;-2.108;2022-08-19T12:41:19;100472.56;;;23.28;37.15
28935;BME280;16044;52.726;-2.108;2022-08-19T12:43:48;100475.25;;;23.18;37.28
28935;BME280;16044;52.726;-2.108;2022-08-19T12:46:18;100473.22;;;23.08;36.99
28935;BME280;16044;52.726;-2.108;2022-08-19T12:48:49;100476.03;;;22.91;37.06
28935;BME280;16044;52.726;-2.108;2022-08-19T12:51:20;100483.56;;;22.74;37.48
28935;BME280;16044;52.726;-2.108;2022-08-19T12:53:48;100482.00;;;22.83;37.68
28935;BME280;16044;52.726;-2.108;2022-08-19T12:56:16;100474.28;;;22.85;37.16
28935;BME280;16044;52.726;-2.108;2022-08-19T12:58:48;100482.53;;;22.80;37.41
28935;BME280;16044;52.726;-2.108;2022-08-19T13:01:18;100480.22;;;22.72;37.16
28935;BME280;16044;52.726;-2.108;2022-08-19T13:03:48;100484.34;;;22.69;37.41
28935;BME280;16044;52.726;-2.108;2022-08-19T13:06:16;100478.31;;;22.72;37.82
28935;BME280;16044;52.726;-2.108;2022-08-19T13:08:45;100479.28;;;22.61;38.33
28935;BME280;16044;52.726;-2.108;2022-08-19T13:11:15;100473.28;;;22.47;38.74
28935;BME280;16044;52.726;-2.108;2022-08-19T13:13:47;100474.00;;;22.37;39.27
28935;BME280;16044;52.726;-2.108;2022-08-19T13:16:15;100469.50;;;22.31;39.46
28935;BME280;16044;52.726;-2.108;2022-08-19T13:18:45;100481.69;;;22.35;39.78